Time;durP1;ratioP1;P1;durP2;ratioP2;P2;SDS_P1;SDS_P2;PMS_P1;PMS_P2;Temp;Humidity;BMP_temperature;BMP_pressure;BME280_temperature;BME280_humidity;BME280_pressure;Samples;Min_cycle;Max_cycle;Signal;HPM_P1;HPM_P2
2022/04/15 00:01:37;;;;;;;14.50;7.43;;;;;;;;;;5072360;28;20045;-78
2022/04/15 00:04:04;;;;;;;14.18;6.32;;;;;;;;;;5072963;28;20047;-78
2022/04/15 00:06:30;;;;;;;10.75;6.68;;;;;;;;;;5072744;28;20433;-78
2022/04/15 00:08:57;;;;;;;11.25;5.82;;;;;;;;;;5072373;28;20127;-78
2022/04/15 00:11:23;;;;;;;16.08;7.13;;;;;;;;;;5071722;28;20036;-78
2022/04/15 00:13:49;;;;;;;16.27;6.25;;;;;;;;;;5071702;28;20059;-77
2022/04/15 00:16:15;;;;;;;16.15;6.43;;;;;;;;;;5071089;28;20075;-76
2022/04/15 00:18:44;;;;;;;14.75;7.30;;;;;;;;;;5072437;28;20028;-76
2022/04/15 00:21:11;;;;;;;14.18;5.95;;;;;;;;;;5054106;28;20090;-78
2022/04/15 00:23:37;;;;;;;13.52;6.22;;;;;;;;;;5071882;28;20072;-78
2022/04/15 00:26:03;;;;;;;15.20;6.68;;;;;;;;;;5070172;28;20487;-78
2022/04/15 00:28:30;;;;;;;11.40;6.18;;;;;;;;;;5070901;28;20480;-78
2022/04/15 00:30:56;;;;;;;11.10;6.28;;;;;;;;;;5054255;28;20036;-78
2022/04/15 00:33:23;;;;;;;15.75;6.32;;;;;;;;;;5070069;28;20044;-78
2022/04/15 00:35:49;;;;;;;12.25;6.30;;;;;;;;;;5054254;28;20377;-78
2022/04/15 00:38:15;;;;;;;8.70;5.45;;;;;;;;;;5071010;28;20037;-78
2022/04/15 00:40:41;;;;;;;15.65;7.10;;;;;;;;;;5070469;28;20037;-78
2022/04/15 00:43:07;;;;;;;13.05;6.05;;;;;;;;;;5070806;28;20047;-78
2022/04/15 00:45:33;;;;;;;14.00;6.82;;;;;;;;;;5070221;28;20041;-78
2022/04/15 00:48:00;;;;;;;12.38;6.60;;;;;;;;;;5072218;28;20037;-77
2022/04/15 00:50:28;;;;;;;16.17;7.18;;;;;;;;;;5070423;28;20044;-77
2022/04/15 00:52:55;;;;;;;12.05;7.70;;;;;;;;;;5070912;28;20048;-76
2022/04/15 00:55:22;;;;;;;12.23;7.07;;;;;;;;;;5054350;28;20421;-76
2022/04/15 00:57:52;;;;;;;13.77;7.63;;;;;;;;;;5071171;28;20416;-76
2022/04/15 01:00:19;;;;;;;13.38;7.55;;;;;;;;;;5070041;28;20036;-77
2022/04/15 01:02:45;;;;;;;14.10;7.78;;;;;;;;;;5069922;28;20047;-77
2022/04/15 01:05:12;;;;;;;14.60;7.55;;;;;;;;;;5070341;28;20514;-77
2022/04/15 01:07:49;;;;;;;14.88;7.78;;;;;;;;;;5070016;28;20048;-77
2022/04/15 01:10:16;;;;;;;10.40;7.28;;;;;;;;;;5071253;28;20041;-77
2022/04/15 01:12:46;;;;;;;13.05;6.88;;;;;;;;;;5069177;28;20184;-77
2022/04/15 01:15:14;;;;;;;11.38;6.78;;;;;;;;;;5070000;28;20551;-76
2022/04/15 01:17:40;;;;;;;15.40;7.80;;;;;;;;;;5070792;28;20538;-76
2022/04/15 01:20:10;;;;;;;15.95;8.50;;;;;;;;;;5053289;28;20036;-76
2022/04/15 01:22:47;;;;;;;14.32;7.75;;;;;;;;;;5067454;28;20037;-76
2022/04/15 01:25:17;;;;;;;14.00;7.97;;;;;;;;;;5069646;28;20048;-76
2022/04/15 01:27:44;;;;;;;16.13;8.10;;;;;;;;;;5071008;28;20043;-77
2022/04/15 01:30:12;;;;;;;17.25;8.07;;;;;;;;;;5070881;28;20066;-77
2022/04/15 01:32:38;;;;;;;13.77;6.80;;;;;;;;;;5070640;28;20032;-76
2022/04/15 01:35:06;;;;;;;14.73;7.97;;;;;;;;;;5053213;28;20427;-76
2022/04/15 01:37:32;;;;;;;15.65;9.20;;;;;;;;;;5070507;28;20457;-76
2022/04/15 01:39:58;;;;;;;13.23;8.10;;;;;;;;;;5070033;28;20033;-76
2022/04/15 01:42:25;;;;;;;14.20;8.30;;;;;;;;;;5053087;28;20104;-77
2022/04/15 01:44:52;;;;;;;14.52;7.93;;;;;;;;;;5069761;28;20119;-76
2022/04/15 01:47:18;;;;;;;12.95;7.82;;;;;;;;;;5053170;28;20037;-77
2022/04/15 01:49:44;;;;;;;13.02;8.52;;;;;;;;;;5070899;28;20439;-74
2022/04/15 01:52:10;;;;;;;15.20;8.35;;;;;;;;;;5069512;28;20059;-77
2022/04/15 01:54:36;;;;;;;14.35;8.05;;;;;;;;;;5070345;28;20446;-77
2022/04/15 01:57:03;;;;;;;15.25;8.18;;;;;;;;;;5069624;28;20399;-78
2022/04/15 01:59:29;;;;;;;18.25;8.38;;;;;;;;;;5069636;28;20480;-77
2022/04/15 02:01:55;;;;;;;14.50;8.63;;;;;;;;;;5065054;28;20149;-77
2022/04/15 02:04:22;;;;;;;15.93;8.15;;;;;;;;;;5071420;28;20491;-77
2022/04/15 02:06:48;;;;;;;19.50;8.77;;;;;;;;;;5068125;28;20047;-77
2022/04/15 02:09:14;;;;;;;22.83;10.10;;;;;;;;;;5072377;28;20032;-76
2022/04/15 02:11:40;;;;;;;13.77;8.68;;;;;;;;;;5069014;28;20532;-76
2022/04/15 02:14:06;;;;;;;16.75;9.07;;;;;;;;;;5070709;28;20545;-75
2022/04/15 02:16:33;;;;;;;14.88;8.57;;;;;;;;;;5069118;28;20071;-75
2022/04/15 02:18:59;;;;;;;16.77;8.75;;;;;;;;;;5070249;28;20480;-76
2022/04/15 02:21:25;;;;;;;13.77;8.38;;;;;;;;;;5069726;28;20387;-75
2022/04/15 02:23:51;;;;;;;16.35;8.90;;;;;;;;;;5069804;28;20412;-74
2022/04/15 02:26:17;;;;;;;14.68;8.30;;;;;;;;;;5066748;28;20079;-74
2022/04/15 02:28:43;;;;;;;15.43;8.65;;;;;;;;;;5070371;28;20040;-74
2022/04/15 02:31:09;;;;;;;14.40;8.68;;;;;;;;;;5070107;28;20040;-74
2022/04/15 02:33:35;;;;;;;16.67;9.00;;;;;;;;;;5052046;28;20041;-76
2022/04/15 02:36:01;;;;;;;19.60;8.55;;;;;;;;;;5068869;28;20036;-75
2022/04/15 02:38:27;;;;;;;17.65;9.10;;;;;;;;;;5069723;28;20048;-76
2022/04/15 02:40:53;;;;;;;17.00;8.95;;;;;;;;;;5070276;28;20448;-76
2022/04/15 02:43:20;;;;;;;17.60;9.18;;;;;;;;;;5068793;28;20924;-75
2022/04/15 02:45:47;;;;;;;14.02;8.85;;;;;;;;;;5068526;28;20084;-75
2022/04/15 02:48:13;;;;;;;14.65;8.57;;;;;;;;;;5069876;28;20069;-76
2022/04/15 02:50:40;;;;;;;13.88;8.70;;;;;;;;;;5074964;28;20083;-76
2022/04/15 02:53:06;;;;;;;16.98;8.85;;;;;;;;;;5075878;28;20044;-78
2022/04/15 02:55:32;;;;;;;12.88;8.30;;;;;;;;;;5076263;28;20036;-78
2022/04/15 02:57:58;;;;;;;16.08;9.20;;;;;;;;;;5059309;28;20036;-76
2022/04/15 03:00:24;;;;;;;13.38;8.52;;;;;;;;;;5075155;28;20078;-76
2022/04/15 03:02:50;;;;;;;14.75;8.50;;;;;;;;;;5075234;28;20044;-77
2022/04/15 03:05:17;;;;;;;13.65;8.63;;;;;;;;;;5075230;28;20430;-77
2022/04/15 03:07:43;;;;;;;15.50;8.50;;;;;;;;;;5058125;28;20066;-77
2022/04/15 03:10:09;;;;;;;14.98;9.02;;;;;;;;;;5075204;28;20506;-77
2022/04/15 03:12:35;;;;;;;14.57;9.18;;;;;;;;;;5041442;28;20036;-77
2022/04/15 03:15:02;;;;;;;14.63;8.45;;;;;;;;;;5058131;28;20041;-76
2022/04/15 03:17:28;;;;;;;15.52;8.93;;;;;;;;;;5057694;28;20036;-76
2022/04/15 03:19:54;;;;;;;14.18;8.30;;;;;;;;;;5076209;28;20032;-76
2022/04/15 03:22:20;;;;;;;13.65;8.55;;;;;;;;;;5058044;28;20040;-76
2022/04/15 03:24:48;;;;;;;14.88;9.18;;;;;;;;;;5057602;28;20124;-75
2022/04/15 03:27:15;;;;;;;17.83;8.65;;;;;;;;;;5074352;28;20078;-75
2022/04/15 03:29:41;;;;;;;17.38;8.25;;;;;;;;;;5074395;28;20123;-77
2022/04/15 03:32:07;;;;;;;13.68;8.85;;;;;;;;;;5058880;28;20048;-77
2022/04/15 03:34:33;;;;;;;16.20;9.45;;;;;;;;;;5075336;28;20040;-76
2022/04/15 03:36:59;;;;;;;15.60;8.93;;;;;;;;;;5076384;28;20033;-76
2022/04/15 03:39:25;;;;;;;13.50;8.68;;;;;;;;;;5076126;28;20507;-76
2022/04/15 03:41:51;;;;;;;15.70;8.65;;;;;;;;;;5075732;28;20033;-75
2022/04/15 03:44:18;;;;;;;14.80;9.20;;;;;;;;;;5074747;28;20145;-76
2022/04/15 03:46:44;;;;;;;13.65;8.77;;;;;;;;;;5075639;28;20032;-75
2022/04/15 03:49:11;;;;;;;11.45;7.75;;;;;;;;;;5074273;28;20102;-76
2022/04/15 03:51:37;;;;;;;13.85;7.32;;;;;;;;;;5074437;28;20583;-77
2022/04/15 03:54:03;;;;;;;14.27;8.60;;;;;;;;;;5074637;28;20484;-76
2022/04/15 03:56:30;;;;;;;16.48;8.63;;;;;;;;;;5075446;28;20094;-75
2022/04/15 03:58:57;;;;;;;14.77;8.70;;;;;;;;;;5075805;28;20047;-77
2022/04/15 04:01:24;;;;;;;12.80;8.43;;;;;;;;;;5068192;28;20605;-76
2022/04/15 04:03:51;;;;;;;16.38;9.43;;;;;;;;;;5054192;28;20076;-76
2022/04/15 04:06:18;;;;;;;11.60;8.07;;;;;;;;;;5070604;28;20544;-76
2022/04/15 04:08:49;;;;;;;13.90;8.02;;;;;;;;;;5070868;28;20074;-75
2022/04/15 04:11:18;;;;;;;12.18;7.03;;;;;;;;;;5071423;28;20076;-78
2022/04/15 04:13:44;;;;;;;11.30;8.00;;;;;;;;;;5070518;28;20051;-78
2022/04/15 04:16:14;;;;;;;12.75;8.23;;;;;;;;;;5072425;28;20553;-79
2022/04/15 04:18:43;;;;;;;10.30;7.55;;;;;;;;;;5072522;28;20033;-78
2022/04/15 04:21:09;;;;;;;12.82;8.57;;;;;;;;;;5071518;28;20377;-79
2022/04/15 04:23:36;;;;;;;13.80;8.30;;;;;;;;;;5054529;28;20540;-79
2022/04/15 04:26:02;;;;;;;10.98;7.43;;;;;;;;;;5071692;28;20043;-78
2022/04/15 04:28:28;;;;;;;13.02;8.20;;;;;;;;;;5070745;28;20567;-76
2022/04/15 04:30:55;;;;;;;11.38;7.80;;;;;;;;;;5072698;28;20040;-76
2022/04/15 04:33:21;;;;;;;12.57;7.78;;;;;;;;;;5054147;28;20044;-77
2022/04/15 04:35:47;;;;;;;12.88;8.10;;;;;;;;;;5054394;28;20090;-76
2022/04/15 04:38:13;;;;;;;15.85;9.13;;;;;;;;;;5072221;28;20052;-77
2022/04/15 04:40:40;;;;;;;12.63;8.32;;;;;;;;;;5071058;28;20041;-76
2022/04/15 04:43:07;;;;;;;12.23;8.05;;;;;;;;;;5070480;28;20044;-78
2022/04/15 04:45:33;;;;;;;14.88;7.70;;;;;;;;;;5054456;28;20079;-78
2022/04/15 04:48:00;;;;;;;9.35;6.43;;;;;;;;;;5054042;28;20036;-74
2022/04/15 04:50:28;;;;;;;11.57;6.82;;;;;;;;;;5071111;28;20047;-75
2022/04/15 04:52:54;;;;;;;11.05;7.32;;;;;;;;;;5070259;28;20036;-74
2022/04/15 04:55:20;;;;;;;11.98;7.20;;;;;;;;;;5072146;28;20037;-74
2022/04/15 04:57:47;;;;;;;10.50;6.70;;;;;;;;;;5053038;28;20040;-74
2022/04/15 05:00:14;;;;;;;10.57;6.65;;;;;;;;;;5071603;28;20048;-73
2022/04/15 05:02:40;;;;;;;11.00;6.90;;;;;;;;;;5069899;28;20090;-74
2022/04/15 05:05:07;;;;;;;10.65;6.97;;;;;;;;;;5070200;28;20040;-74
2022/04/15 05:07:33;;;;;;;12.15;7.20;;;;;;;;;;5053217;28;20044;-74
2022/04/15 05:10:00;;;;;;;13.13;7.53;;;;;;;;;;5071607;28;20546;-78
2022/04/15 05:12:26;;;;;;;11.90;6.88;;;;;;;;;;5069881;28;20106;-78
2022/04/15 05:14:52;;;;;;;12.95;7.10;;;;;;;;;;5072097;28;20120;-78
2022/04/15 05:17:18;;;;;;;9.82;6.72;;;;;;;;;;5071519;28;20255;-79
2022/04/15 05:19:45;;;;;;;12.30;6.32;;;;;;;;;;5071287;28;20466;-77
2022/04/15 05:22:11;;;;;;;13.90;6.95;;;;;;;;;;5071710;28;20119;-73
2022/04/15 05:24:37;;;;;;;10.65;6.55;;;;;;;;;;5070670;28;20071;-74
2022/04/15 05:27:04;;;;;;;11.02;6.32;;;;;;;;;;5052613;28;20064;-75
2022/04/15 05:29:30;;;;;;;10.82;6.40;;;;;;;;;;5068960;28;20032;-75
2022/04/15 05:31:56;;;;;;;11.90;7.18;;;;;;;;;;5069605;28;20048;-74
2022/04/15 05:34:22;;;;;;;9.25;5.70;;;;;;;;;;5070707;28;20048;-74
2022/04/15 05:36:48;;;;;;;11.77;6.22;;;;;;;;;;5069461;28;20491;-73
2022/04/15 05:39:14;;;;;;;12.10;6.28;;;;;;;;;;5069925;28;20093;-75
2022/04/15 05:41:41;;;;;;;10.68;6.78;;;;;;;;;;5069173;28;20040;-75
2022/04/15 05:44:08;;;;;;;13.95;7.20;;;;;;;;;;5069284;28;20056;-76
2022/04/15 05:46:37;;;;;;;14.23;7.03;;;;;;;;;;5052599;28;20044;-75
2022/04/15 05:49:05;;;;;;;12.57;6.82;;;;;;;;;;5069047;28;20500;-75
2022/04/15 05:51:31;;;;;;;12.93;7.03;;;;;;;;;;5070312;28;20056;-76
2022/04/15 05:53:58;;;;;;;13.63;8.43;;;;;;;;;;5069371;28;20045;-78
2022/04/15 05:56:24;;;;;;;12.32;7.90;;;;;;;;;;5068784;28;20046;-76
2022/04/15 05:58:50;;;;;;;11.65;8.27;;;;;;;;;;5052079;28;20040;-77
2022/04/15 06:01:17;;;;;;;13.20;8.57;;;;;;;;;;5070848;28;20037;-75
2022/04/15 06:03:43;;;;;;;13.80;8.85;;;;;;;;;;5068703;28;20040;-76
2022/04/15 06:06:09;;;;;;;14.40;8.50;;;;;;;;;;5069345;28;20495;-77
2022/04/15 06:08:35;;;;;;;11.48;7.80;;;;;;;;;;5068910;28;20052;-74
2022/04/15 06:11:01;;;;;;;13.63;8.32;;;;;;;;;;5052437;28;20479;-73
2022/04/15 06:13:27;;;;;;;12.75;8.68;;;;;;;;;;5068603;28;20136;-77
2022/04/15 06:15:55;;;;;;;15.45;8.60;;;;;;;;;;5068906;28;20111;-78
2022/04/15 06:18:22;;;;;;;11.82;8.18;;;;;;;;;;5068493;28;20075;-78
2022/04/15 06:20:48;;;;;;;11.77;8.20;;;;;;;;;;5069942;28;20045;-77
2022/04/15 06:23:15;;;;;;;12.10;7.40;;;;;;;;;;5068063;28;20079;-78
2022/04/15 06:25:41;;;;;;;10.70;7.50;;;;;;;;;;5068623;28;20045;-78
2022/04/15 06:28:08;;;;;;;11.55;7.90;;;;;;;;;;5068724;28;20041;-77
2022/04/15 06:30:34;;;;;;;11.05;7.20;;;;;;;;;;5051773;28;20052;-77
2022/04/15 06:33:00;;;;;;;10.80;6.97;;;;;;;;;;5068653;28;20134;-78
2022/04/15 06:35:26;;;;;;;11.15;7.80;;;;;;;;;;5052273;28;20028;-77
2022/04/15 06:37:52;;;;;;;10.10;7.20;;;;;;;;;;5068772;28;20040;-79
2022/04/15 06:40:19;;;;;;;10.55;7.28;;;;;;;;;;5051947;28;20040;-76
2022/04/15 06:42:45;;;;;;;9.68;6.63;;;;;;;;;;5069854;28;20622;-78
2022/04/15 06:45:13;;;;;;;8.68;6.63;;;;;;;;;;5069768;28;20951;-77
2022/04/15 06:47:39;;;;;;;8.75;6.70;;;;;;;;;;5068950;28;20040;-78
2022/04/15 06:50:06;;;;;;;9.73;6.43;;;;;;;;;;5069080;28;20056;-77
2022/04/15 06:52:32;;;;;;;10.40;6.03;;;;;;;;;;5069044;28;20044;-79
2022/04/15 06:54:58;;;;;;;9.70;6.55;;;;;;;;;;5068364;28;20041;-78
2022/04/15 06:57:24;;;;;;;8.93;6.20;;;;;;;;;;5068208;28;20032;-78
2022/04/15 06:59:50;;;;;;;9.13;5.95;;;;;;;;;;5051331;28;20033;-77
2022/04/15 07:02:17;;;;;;;9.52;5.90;;;;;;;;;;5069944;28;20123;-77
2022/04/15 07:04:43;;;;;;;9.27;5.82;;;;;;;;;;5068233;28;20555;-77
2022/04/15 07:07:09;;;;;;;7.13;5.38;;;;;;;;;;5051939;28;20424;-76
2022/04/15 07:09:35;;;;;;;6.82;5.10;;;;;;;;;;5067624;28;20124;-75
2022/04/15 07:12:01;;;;;;;7.55;5.10;;;;;;;;;;5069513;28;20039;-78
2022/04/15 07:14:29;;;;;;;5.97;4.65;;;;;;;;;;5051700;28;20485;-78
2022/04/15 07:16:55;;;;;;;5.50;4.15;;;;;;;;;;5051339;28;20081;-78
2022/04/15 07:19:21;;;;;;;6.65;4.50;;;;;;;;;;5068350;28;20048;-77
2022/04/15 07:21:47;;;;;;;6.97;4.18;;;;;;;;;;5051278;28;20032;-76
2022/04/15 07:24:13;;;;;;;5.88;4.07;;;;;;;;;;5051598;28;20077;-79
2022/04/15 07:26:40;;;;;;;6.05;4.50;;;;;;;;;;5067898;28;20044;-78
2022/04/15 07:29:07;;;;;;;6.75;4.30;;;;;;;;;;5051662;28;20158;-76
2022/04/15 07:31:34;;;;;;;4.97;3.33;;;;;;;;;;5068819;28;20116;-74
2022/04/15 07:34:01;;;;;;;4.80;3.55;;;;;;;;;;5068040;28;20131;-76
2022/04/15 07:39:03;;;;;;;5.15;3.38;;;;;;;;;;5072343;28;20499;-77
2022/04/15 07:41:30;;;;;;;4.80;3.70;;;;;;;;;;5071538;28;20116;-78
2022/04/15 07:43:56;;;;;;;4.25;3.25;;;;;;;;;;5055298;28;20044;-77
2022/04/15 07:46:22;;;;;;;4.82;3.47;;;;;;;;;;5072736;28;20040;-76
2022/04/15 07:48:49;;;;;;;5.20;3.63;;;;;;;;;;5071210;28;20048;-78
2022/04/15 07:51:15;;;;;;;4.65;3.15;;;;;;;;;;5071344;28;20045;-76
2022/04/15 07:53:41;;;;;;;6.00;3.45;;;;;;;;;;5071192;28;20049;-76
2022/04/15 07:56:07;;;;;;;6.55;3.70;;;;;;;;;;5071727;28;20480;-78
2022/04/15 07:58:34;;;;;;;4.03;2.92;;;;;;;;;;5071817;28;20047;-76
2022/04/15 08:01:00;;;;;;;5.45;3.35;;;;;;;;;;5072404;28;20039;-78
2022/04/15 08:03:29;;;;;;;5.40;3.65;;;;;;;;;;5071912;28;20052;-75
2022/04/15 08:05:55;;;;;;;7.05;4.20;;;;;;;;;;5072366;28;20082;-75
2022/04/15 08:08:21;;;;;;;7.45;4.53;;;;;;;;;;5071421;28;20032;-77
2022/04/15 08:10:53;;;;;;;5.93;4.30;;;;;;;;;;5070828;28;20040;-76
2022/04/15 08:13:19;;;;;;;6.10;4.22;;;;;;;;;;5072478;28;20037;-76
2022/04/15 08:15:46;;;;;;;7.10;4.40;;;;;;;;;;5054147;28;20542;-76
2022/04/15 08:18:12;;;;;;;7.18;4.65;;;;;;;;;;5054350;28;20620;-76
2022/04/15 08:20:38;;;;;;;8.40;4.97;;;;;;;;;;5053541;28;20040;-76
2022/04/15 08:23:04;;;;;;;6.63;5.03;;;;;;;;;;5072091;28;20036;-76
2022/04/15 08:25:30;;;;;;;9.80;5.38;;;;;;;;;;5071079;28;20511;-77
2022/04/15 08:27:57;;;;;;;9.38;5.30;;;;;;;;;;5070843;28;20120;-77
2022/04/15 08:30:24;;;;;;;7.35;5.38;;;;;;;;;;5070477;28;20048;-78
2022/04/15 08:32:54;;;;;;;9.02;6.35;;;;;;;;;;5070079;28;20044;-77
2022/04/15 08:35:21;;;;;;;10.40;6.45;;;;;;;;;;5052393;28;20504;-77
2022/04/15 08:37:47;;;;;;;10.27;6.30;;;;;;;;;;5070507;28;20037;-78
2022/04/15 08:40:13;;;;;;;11.55;7.38;;;;;;;;;;5070574;28;20075;-77
2022/04/15 08:42:40;;;;;;;13.25;7.78;;;;;;;;;;5070163;28;20071;-77
2022/04/15 08:45:10;;;;;;;14.75;8.60;;;;;;;;;;5070964;28;20044;-77
2022/04/15 08:47:41;;;;;;;12.88;8.05;;;;;;;;;;5069305;28;20067;-78
2022/04/15 08:50:08;;;;;;;15.85;8.68;;;;;;;;;;5070335;28;20061;-76
2022/04/15 08:52:34;;;;;;;13.38;8.75;;;;;;;;;;5053278;28;20048;-76
2022/04/15 08:55:00;;;;;;;13.57;8.18;;;;;;;;;;5070067;28;20072;-76
2022/04/15 08:57:27;;;;;;;14.43;8.27;;;;;;;;;;5053637;28;20047;-75
2022/04/15 08:59:53;;;;;;;15.27;8.13;;;;;;;;;;5070090;28;20028;-75
2022/04/15 09:02:30;;;;;;;14.82;8.52;;;;;;;;;;5069991;28;20144;-75
2022/04/15 09:04:57;;;;;;;15.48;8.18;;;;;;;;;;5070163;28;20033;-76
2022/04/15 09:07:23;;;;;;;11.32;8.10;;;;;;;;;;5070020;28;20045;-76
2022/04/15 09:09:56;;;;;;;16.20;8.55;;;;;;;;;;5069479;28;20072;-76
2022/04/15 09:12:25;;;;;;;16.85;8.55;;;;;;;;;;5069213;28;20036;-76
2022/04/15 09:15:01;;;;;;;14.60;8.27;;;;;;;;;;5069512;28;20049;-77
2022/04/15 09:17:28;;;;;;;;;;;;;;;;;;5071685;28;20539;-76
2022/04/15 09:19:54;;;;;;;14.43;8.50;;;;;;;;;;5069551;28;19920;-77
2022/04/15 09:22:20;;;;;;;14.48;8.65;;;;;;;;;;5053267;28;20559;-78
2022/04/15 09:24:47;;;;;;;15.63;8.25;;;;;;;;;;5069421;28;20048;-78
2022/04/15 09:27:15;;;;;;;12.57;8.50;;;;;;;;;;5069705;28;20072;-79
2022/04/15 09:29:41;;;;;;;12.43;7.57;;;;;;;;;;5069248;28;20032;-76
2022/04/15 09:32:14;;;;;;;15.85;8.13;;;;;;;;;;5069599;28;20038;-79
2022/04/15 09:34:52;;;;;;;16.73;7.95;;;;;;;;;;5067385;28;20068;-77
2022/04/15 09:37:19;;;;;;;15.23;8.10;;;;;;;;;;5069538;28;20119;-77
2022/04/15 09:40:25;;;;;;;12.45;7.90;;;;;;;;;;5070735;28;20039;-77
2022/04/15 09:42:52;;;;;;;16.73;8.00;;;;;;;;;;5031445;28;20055;-76
2022/04/15 09:45:19;;;;;;;15.10;8.05;;;;;;;;;;5015300;28;20412;-77
2022/04/15 09:47:56;;;;;;;12.35;7.90;;;;;;;;;;5048055;28;20131;-77
2022/04/15 09:50:28;;;;;;;14.63;8.18;;;;;;;;;;5068561;28;20064;-77
2022/04/15 09:52:55;;;;;;;11.60;7.72;;;;;;;;;;5068610;28;20055;-77
2022/04/15 09:55:25;;;;;;;18.63;7.82;;;;;;;;;;5069114;28;20059;-76
2022/04/15 09:57:52;;;;;;;14.52;8.05;;;;;;;;;;5069290;28;20568;-77
2022/04/15 10:00:19;;;;;;;16.85;8.25;;;;;;;;;;5068817;28;20044;-78
2022/04/15 10:02:49;;;;;;;12.98;7.43;;;;;;;;;;5068897;28;20488;-77
2022/04/15 10:05:15;;;;;;;12.55;7.00;;;;;;;;;;5052446;28;20044;-78
2022/04/15 10:07:42;;;;;;;13.85;7.70;;;;;;;;;;5068605;28;20033;-77
2022/04/15 10:10:09;;;;;;;10.50;6.65;;;;;;;;;;5052079;28;20036;-76
2022/04/15 10:12:42;;;;;;;11.52;7.05;;;;;;;;;;5068133;28;20560;-76
2022/04/15 10:15:09;;;;;;;11.75;6.80;;;;;;;;;;5068631;28;20040;-76
2022/04/15 10:17:36;;;;;;;12.85;6.40;;;;;;;;;;5069725;28;20037;-78
2022/04/15 10:20:03;;;;;;;10.70;5.97;;;;;;;;;;5070233;28;20048;-78
2022/04/15 10:22:29;;;;;;;11.63;5.68;;;;;;;;;;5051878;28;20131;-77
2022/04/15 10:24:55;;;;;;;10.60;5.95;;;;;;;;;;5068318;28;20126;-78
2022/04/15 10:27:26;;;;;;;8.43;5.28;;;;;;;;;;5068581;28;20109;-76
2022/04/15 10:30:02;;;;;;;10.10;5.70;;;;;;;;;;5051996;28;20514;-79
2022/04/15 10:32:29;;;;;;;10.00;5.45;;;;;;;;;;5066928;28;20047;-79
2022/04/15 10:34:55;;;;;;;8.05;5.45;;;;;;;;;;5068730;28;20044;-79
2022/04/15 10:37:40;;;;;;;8.73;4.63;;;;;;;;;;5068405;28;20124;-76
2022/04/15 10:40:21;;;;;;;11.57;5.30;;;;;;;;;;5070166;28;20037;-74
2022/04/15 10:42:47;;;;;;;9.88;4.90;;;;;;;;;;5068414;28;20533;-74
2022/04/15 10:45:26;;;;;;;8.20;4.80;;;;;;;;;;5070419;28;20037;-76
2022/04/15 10:47:59;;;;;;;9.40;4.60;;;;;;;;;;5067672;28;20052;-79
2022/04/15 10:50:33;;;;;;;8.43;4.80;;;;;;;;;;5067822;28;20067;-77
2022/04/15 10:53:18;;;;;;;10.48;5.07;;;;;;;;;;5068096;28;20079;-79
2022/04/15 10:55:47;;;;;;;11.52;4.85;;;;;;;;;;5069054;28;20380;-79
2022/04/15 10:58:13;;;;;;;9.35;4.70;;;;;;;;;;5068362;28;20094;-78
2022/04/15 11:03:26;;;;;;;7.40;4.60;;;;;;;;;;5069771;28;20044;-73
2022/04/15 11:06:04;;;;;;;7.53;4.50;;;;;;;;;;5069290;28;20044;-79
2022/04/15 11:08:44;;;;;;;7.22;4.38;;;;;;;;;;5051833;28;20059;-79
2022/04/15 11:11:10;;;;;;;7.95;4.78;;;;;;;;;;5071666;28;20133;-79
2022/04/15 11:13:39;;;;;;;7.60;4.72;;;;;;;;;;5073224;28;20040;-78
2022/04/15 11:16:06;;;;;;;10.25;5.15;;;;;;;;;;5072403;28;20036;-79
2022/04/15 11:18:50;;;;;;;8.52;4.75;;;;;;;;;;5071842;28;20052;-79
2022/04/15 11:21:16;;;;;;;7.63;4.40;;;;;;;;;;5072367;28;20041;-78
2022/04/15 11:23:46;;;;;;;6.63;4.70;;;;;;;;;;5073067;28;20044;-79
2022/04/15 11:26:13;;;;;;;10.30;4.40;;;;;;;;;;5072226;28;20090;-78
2022/04/15 11:28:39;;;;;;;7.40;4.70;;;;;;;;;;5072412;28;20088;-79
2022/04/15 11:31:18;;;;;;;7.28;4.60;;;;;;;;;;5056187;28;20474;-78
2022/04/15 11:33:44;;;;;;;7.10;4.38;;;;;;;;;;5072576;28;20043;-78
2022/04/15 11:36:10;;;;;;;8.77;4.80;;;;;;;;;;5055025;28;20037;-78
2022/04/15 11:38:36;;;;;;;10.43;4.55;;;;;;;;;;5071804;28;20094;-79
2022/04/15 11:41:02;;;;;;;8.52;4.72;;;;;;;;;;5072812;28;20037;-77
2022/04/15 11:43:28;;;;;;;7.60;4.40;;;;;;;;;;5071596;28;20086;-78
2022/04/15 11:45:55;;;;;;;8.18;4.15;;;;;;;;;;5071695;28;20036;-79
2022/04/15 11:48:22;;;;;;;7.68;4.30;;;;;;;;;;5072754;28;20373;-79
2022/04/15 11:50:50;;;;;;;6.78;4.35;;;;;;;;;;5072423;28;20051;-79
2022/04/15 11:53:16;;;;;;;9.95;4.80;;;;;;;;;;5072636;28;20123;-79
2022/04/15 11:55:52;;;;;;;8.00;3.92;;;;;;;;;;5054492;28;20048;-78
2022/04/15 11:58:19;;;;;;;6.95;4.13;;;;;;;;;;5071672;28;20041;-78
2022/04/15 12:00:52;;;;;;;6.78;4.15;;;;;;;;;;5071127;28;20089;-79
2022/04/15 12:03:18;;;;;;;7.47;4.50;;;;;;;;;;5071476;28;20040;-78
2022/04/15 12:05:44;;;;;;;7.57;4.45;;;;;;;;;;5072288;28;20082;-78
2022/04/15 12:08:10;;;;;;;8.80;4.75;;;;;;;;;;5072612;28;20044;-78
2022/04/15 12:10:40;;;;;;;10.68;5.03;;;;;;;;;;5070783;28;20037;-78
2022/04/15 12:13:09;;;;;;;8.13;4.70;;;;;;;;;;5071974;28;20040;-78
2022/04/15 12:15:35;;;;;;;9.23;5.03;;;;;;;;;;5070918;28;20392;-78
2022/04/15 12:18:05;;;;;;;7.88;4.80;;;;;;;;;;5053774;28;20037;-79
2022/04/15 12:20:33;;;;;;;11.23;4.43;;;;;;;;;;5070846;28;20368;-77
2022/04/15 12:22:59;;;;;;;8.95;5.75;;;;;;;;;;5070003;28;20052;-77
2022/04/15 12:25:26;;;;;;;8.38;5.40;;;;;;;;;;5070997;28;20055;-78
2022/04/15 12:27:55;;;;;;;7.13;5.00;;;;;;;;;;5070741;28;20047;-79
2022/04/15 12:30:42;;;;;;;7.53;4.95;;;;;;;;;;5072242;28;20044;-78
2022/04/15 12:33:10;;;;;;;8.00;5.05;;;;;;;;;;5070664;28;20396;-77
2022/04/15 12:35:36;;;;;;;10.52;5.15;;;;;;;;;;5070743;28;20044;-78
2022/04/15 12:38:02;;;;;;;8.23;4.88;;;;;;;;;;5071623;28;20456;-78
2022/04/15 12:40:30;;;;;;;9.48;5.85;;;;;;;;;;5054139;28;20032;-77
2022/04/15 12:42:56;;;;;;;7.75;5.45;;;;;;;;;;5070358;28;20047;-78
2022/04/15 12:45:23;;;;;;;9.63;5.93;;;;;;;;;;5070228;28;20048;-76
2022/04/15 12:47:58;;;;;;;8.20;5.35;;;;;;;;;;5053112;28;20523;-78
2022/04/15 12:50:25;;;;;;;9.57;5.27;;;;;;;;;;5070136;28;20447;-78
2022/04/15 12:52:52;;;;;;;8.43;5.60;;;;;;;;;;5069981;28;20302;-78
2022/04/15 12:55:26;;;;;;;8.60;5.60;;;;;;;;;;5070166;28;20124;-78
2022/04/15 12:57:52;;;;;;;8.10;5.30;;;;;;;;;;5053355;28;20040;-79
2022/04/15 13:00:18;;;;;;;9.35;5.40;;;;;;;;;;5070315;28;20033;-78
2022/04/15 13:02:45;;;;;;;8.45;5.18;;;;;;;;;;5053270;28;20074;-76
2022/04/15 13:05:11;;;;;;;9.02;5.35;;;;;;;;;;5071920;28;20468;-77
2022/04/15 13:07:38;;;;;;;6.57;5.35;;;;;;;;;;5070069;28;20046;-77
2022/04/15 13:10:05;;;;;;;9.48;5.25;;;;;;;;;;5069959;28;20044;-77
2022/04/15 13:12:32;;;;;;;8.65;5.18;;;;;;;;;;5053391;28;20132;-75
2022/04/15 13:14:58;;;;;;;8.90;5.68;;;;;;;;;;5070994;28;20036;-76
2022/04/15 13:17:24;;;;;;;10.00;5.30;;;;;;;;;;5053283;28;20037;-77
2022/04/15 13:19:50;;;;;;;7.63;5.32;;;;;;;;;;5053075;28;20037;-79
2022/04/15 13:22:17;;;;;;;7.45;5.35;;;;;;;;;;5071473;28;20029;-75
2022/04/15 13:24:43;;;;;;;9.38;5.32;;;;;;;;;;5069617;28;20426;-77
2022/04/15 13:27:11;;;;;;;8.40;5.13;;;;;;;;;;5070118;28;20111;-78
2022/04/15 13:29:37;;;;;;;9.95;4.97;;;;;;;;;;5069660;28;20033;-76
2022/04/15 13:32:04;;;;;;;9.82;5.57;;;;;;;;;;5069417;28;20043;-78
2022/04/15 13:34:34;;;;;;;8.93;5.32;;;;;;;;;;5069237;28;20060;-78
2022/04/15 13:37:04;;;;;;;7.88;5.03;;;;;;;;;;5069012;28;20040;-79
2022/04/15 13:39:31;;;;;;;7.72;4.82;;;;;;;;;;5053214;28;20491;-78
2022/04/15 13:41:58;;;;;;;8.57;4.97;;;;;;;;;;5070611;28;20037;-78
2022/04/15 13:44:27;;;;;;;10.13;4.90;;;;;;;;;;5069703;28;20481;-79
2022/04/15 13:46:54;;;;;;;11.55;5.55;;;;;;;;;;5070458;28;20036;-77
2022/04/15 13:49:20;;;;;;;9.23;5.43;;;;;;;;;;5069504;28;20137;-76
2022/04/15 13:51:46;;;;;;;10.52;6.28;;;;;;;;;;5070637;28;20078;-76
2022/04/15 13:56:57;;;;;;;12.40;5.43;;;;;;;;;;5068863;28;20037;-75
2022/04/15 13:59:23;;;;;;;8.48;5.18;;;;;;;;;;5052609;28;20128;-74
2022/04/15 14:01:49;;;;;;;8.65;5.28;;;;;;;;;;5069448;28;20480;-76
2022/04/15 14:04:16;;;;;;;10.60;6.00;;;;;;;;;;5069243;28;20060;-77
2022/04/15 14:06:43;;;;;;;9.65;5.40;;;;;;;;;;5068644;28;20052;-78
2022/04/15 14:09:10;;;;;;;9.45;5.95;;;;;;;;;;5068531;28;20113;-75
2022/04/15 14:11:37;;;;;;;9.50;5.85;;;;;;;;;;5069002;28;20036;-78
2022/04/15 14:14:04;;;;;;;11.13;5.55;;;;;;;;;;5068351;28;20044;-78
2022/04/15 14:16:31;;;;;;;9.32;5.55;;;;;;;;;;5070160;28;20048;-78
2022/04/15 14:18:57;;;;;;;9.88;5.85;;;;;;;;;;5068739;28;20037;-78
2022/04/15 14:21:24;;;;;;;78.10;14.52;;;;;;;;;;5070710;28;20037;-76
2022/04/15 14:23:50;;;;;;;9.63;5.78;;;;;;;;;;5068920;28;20044;-75
2022/04/15 14:26:16;;;;;;;8.27;5.47;;;;;;;;;;5069008;28;20385;-78
2022/04/15 14:28:43;;;;;;;8.48;6.15;;;;;;;;;;5068278;28;20443;-78
2022/04/15 14:31:10;;;;;;;9.30;6.07;;;;;;;;;;5035347;28;20107;-77
2022/04/15 14:33:39;;;;;;;9.50;5.50;;;;;;;;;;5052394;28;20041;-75
2022/04/15 14:36:06;;;;;;;11.23;6.15;;;;;;;;;;5068863;28;20037;-78
2022/04/15 14:38:32;;;;;;;10.35;5.90;;;;;;;;;;5068657;28;20098;-78
2022/04/15 14:41:04;;;;;;;8.38;6.00;;;;;;;;;;5066132;28;20105;-78
2022/04/15 14:43:30;;;;;;;8.50;5.50;;;;;;;;;;5052935;28;20068;-78
2022/04/15 14:45:56;;;;;;;17.75;7.22;;;;;;;;;;5070094;28;20075;-78